sensor_id;sensor_type;location;lat;lon;timestamp;P1;durP1;ratioP1;P2;durP2;ratioP2
62584;SDS011;48643;51.670;5.808;2022-11-15T00:00:20;10.82;;;5.05;;
62584;SDS011;48643;51.670;5.808;2022-11-15T00:03:06;9.75;;;4.88;;
62584;SDS011;48643;51.670;5.808;2022-11-15T00:05:51;7.97;;;4.93;;
62584;SDS011;48643;51.670;5.808;2022-11-15T00:08:37;10.63;;;5.00;;
62584;SDS011;48643;51.670;5.808;2022-11-15T00:11:22;7.93;;;4.88;;
62584;SDS011;48643;51.670;5.808;2022-11-15T00:14:08;8.60;;;4.97;;
62584;SDS011;48643;51.670;5.808;2022-11-15T00:16:53;7.25;;;4.75;;
62584;SDS011;48643;51.670;5.808;2022-11-15T00:19:39;7.15;;;4.68;;
62584;SDS011;48643;51.670;5.808;2022-11-15T00:22:24;9.93;;;4.68;;
62584;SDS011;48643;51.670;5.808;2022-11-15T00:25:10;7.70;;;5.15;;
62584;SDS011;48643;51.670;5.808;2022-11-15T00:27:56;7.82;;;4.68;;
62584;SDS011;48643;51.670;5.808;2022-11-15T00:30:42;8.02;;;4.45;;
62584;SDS011;48643;51.670;5.808;2022-11-15T00:33:27;10.70;;;4.80;;
62584;SDS011;48643;51.670;5.808;2022-11-15T00:36:13;7.70;;;4.80;;
62584;SDS011;48643;51.670;5.808;2022-11-15T00:38:59;6.82;;;4.90;;
62584;SDS011;48643;51.670;5.808;2022-11-15T00:41:44;9.82;;;4.53;;
62584;SDS011;48643;51.670;5.808;2022-11-15T00:44:30;9.90;;;4.97;;
62584;SDS011;48643;51.670;5.808;2022-11-15T00:47:15;7.35;;;4.70;;
62584;SDS011;48643;51.670;5.808;2022-11-15T00:50:00;7.13;;;4.50;;
62584;SDS011;48643;51.670;5.808;2022-11-15T00:52:46;9.00;;;4.90;;
62584;SDS011;48643;51.670;5.808;2022-11-15T00:55:31;8.38;;;4.70;;
62584;SDS011;48643;51.670;5.808;2022-11-15T00:58:17;7.80;;;4.53;;
62584;SDS011;48643;51.670;5.808;2022-11-15T01:01:10;6.32;;;4.50;;
62584;SDS011;48643;51.670;5.808;2022-11-15T01:03:57;6.13;;;4.07;;
62584;SDS011;48643;51.670;5.808;2022-11-15T01:06:45;6.78;;;4.38;;
62584;SDS011;48643;51.670;5.808;2022-11-15T01:09:31;6.53;;;4.28;;
62584;SDS011;48643;51.670;5.808;2022-11-15T01:12:16;6.75;;;4.85;;
62584;SDS011;48643;51.670;5.808;2022-11-15T01:15:02;8.38;;;4.68;;
62584;SDS011;48643;51.670;5.808;2022-11-15T01:17:48;6.22;;;4.35;;
62584;SDS011;48643;51.670;5.808;2022-11-15T01:20:34;6.13;;;4.47;;
62584;SDS011;48643;51.670;5.808;2022-11-15T01:23:19;7.90;;;4.63;;
62584;SDS011;48643;51.670;5.808;2022-11-15T01:26:06;7.65;;;4.60;;
62584;SDS011;48643;51.670;5.808;2022-11-15T01:28:54;6.15;;;4.45;;
62584;SDS011;48643;51.670;5.808;2022-11-15T01:31:40;7.88;;;4.90;;
62584;SDS011;48643;51.670;5.808;2022-11-15T01:34:25;6.35;;;4.53;;
62584;SDS011;48643;51.670;5.808;2022-11-15T01:37:11;6.30;;;4.57;;
62584;SDS011;48643;51.670;5.808;2022-11-15T01:39:56;6.30;;;4.40;;
62584;SDS011;48643;51.670;5.808;2022-11-15T01:42:41;6.22;;;4.60;;
62584;SDS011;48643;51.670;5.808;2022-11-15T01:45:27;7.22;;;4.65;;
62584;SDS011;48643;51.670;5.808;2022-11-15T01:48:12;5.88;;;4.50;;
62584;SDS011;48643;51.670;5.808;2022-11-15T01:50:59;6.35;;;4.70;;
62584;SDS011;48643;51.670;5.808;2022-11-15T01:53:47;6.68;;;4.53;;
62584;SDS011;48643;51.670;5.808;2022-11-15T01:56:36;6.18;;;4.28;;
62584;SDS011;48643;51.670;5.808;2022-11-15T01:59:25;5.75;;;4.50;;
62584;SDS011;48643;51.670;5.808;2022-11-15T02:02:11;6.82;;;4.70;;
62584;SDS011;48643;51.670;5.808;2022-11-15T02:04:56;6.40;;;4.30;;
62584;SDS011;48643;51.670;5.808;2022-11-15T02:07:42;6.97;;;4.55;;
62584;SDS011;48643;51.670;5.808;2022-11-15T02:10:27;5.22;;;4.30;;
62584;SDS011;48643;51.670;5.808;2022-11-15T02:13:16;5.50;;;4.50;;
62584;SDS011;48643;51.670;5.808;2022-11-15T02:22:21;6.53;;;4.13;;
62584;SDS011;48643;51.670;5.808;2022-11-15T02:37:07;9.15;;;4.30;;
62584;SDS011;48643;51.670;5.808;2022-11-15T02:40:01;6.82;;;4.50;;
62584;SDS011;48643;51.670;5.808;2022-11-15T02:42:56;5.22;;;4.18;;
62584;SDS011;48643;51.670;5.808;2022-11-15T02:46:14;6.47;;;4.50;;
62584;SDS011;48643;51.670;5.808;2022-11-15T02:49:41;5.90;;;4.30;;
62584;SDS011;48643;51.670;5.808;2022-11-15T02:52:31;6.28;;;4.63;;
62584;SDS011;48643;51.670;5.808;2022-11-15T03:01:06;6.17;;;4.10;;
62584;SDS011;48643;51.670;5.808;2022-11-15T03:04:23;6.07;;;4.15;;
62584;SDS011;48643;51.670;5.808;2022-11-15T03:07:25;5.13;;;4.10;;
62584;SDS011;48643;51.670;5.808;2022-11-15T03:10:29;8.85;;;4.47;;
62584;SDS011;48643;51.670;5.808;2022-11-15T03:13:48;5.97;;;4.30;;
62584;SDS011;48643;51.670;5.808;2022-11-15T03:16:48;6.28;;;4.35;;
62584;SDS011;48643;51.670;5.808;2022-11-15T03:19:37;5.78;;;4.20;;
62584;SDS011;48643;51.670;5.808;2022-11-15T03:22:29;5.30;;;4.18;;
62584;SDS011;48643;51.670;5.808;2022-11-15T03:25:18;7.22;;;4.60;;
62584;SDS011;48643;51.670;5.808;2022-11-15T03:28:06;5.50;;;4.20;;
62584;SDS011;48643;51.670;5.808;2022-11-15T03:30:53;5.78;;;4.05;;
62584;SDS011;48643;51.670;5.808;2022-11-15T03:33:39;5.90;;;4.25;;
62584;SDS011;48643;51.670;5.808;2022-11-15T03:36:25;7.00;;;4.40;;
62584;SDS011;48643;51.670;5.808;2022-11-15T03:39:11;5.80;;;4.25;;
62584;SDS011;48643;51.670;5.808;2022-11-15T03:45:02;6.18;;;4.25;;
62584;SDS011;48643;51.670;5.808;2022-11-15T03:48:01;5.43;;;4.10;;
62584;SDS011;48643;51.670;5.808;2022-11-15T03:50:50;6.82;;;4.18;;
62584;SDS011;48643;51.670;5.808;2022-11-15T03:53:35;7.65;;;4.30;;
62584;SDS011;48643;51.670;5.808;2022-11-15T03:56:21;5.60;;;4.38;;
62584;SDS011;48643;51.670;5.808;2022-11-15T03:59:06;5.53;;;4.30;;
62584;SDS011;48643;51.670;5.808;2022-11-15T04:01:52;5.85;;;4.20;;
62584;SDS011;48643;51.670;5.808;2022-11-15T04:04:37;6.38;;;4.25;;
62584;SDS011;48643;51.670;5.808;2022-11-15T04:07:23;6.85;;;4.20;;
62584;SDS011;48643;51.670;5.808;2022-11-15T04:10:14;5.55;;;3.95;;
62584;SDS011;48643;51.670;5.808;2022-11-15T04:13:01;6.95;;;4.30;;
62584;SDS011;48643;51.670;5.808;2022-11-15T04:15:47;5.90;;;4.10;;
62584;SDS011;48643;51.670;5.808;2022-11-15T04:18:32;6.05;;;4.20;;
62584;SDS011;48643;51.670;5.808;2022-11-15T04:21:18;6.25;;;4.18;;
62584;SDS011;48643;51.670;5.808;2022-11-15T04:24:22;5.47;;;4.00;;
62584;SDS011;48643;51.670;5.808;2022-11-15T04:27:07;5.68;;;4.20;;
62584;SDS011;48643;51.670;5.808;2022-11-15T04:29:53;6.63;;;4.15;;
62584;SDS011;48643;51.670;5.808;2022-11-15T04:32:38;6.05;;;4.20;;
62584;SDS011;48643;51.670;5.808;2022-11-15T04:35:24;6.28;;;4.40;;
62584;SDS011;48643;51.670;5.808;2022-11-15T04:38:09;5.80;;;4.28;;
62584;SDS011;48643;51.670;5.808;2022-11-15T04:40:55;5.60;;;4.00;;
62584;SDS011;48643;51.670;5.808;2022-11-15T04:43:41;6.05;;;4.22;;
62584;SDS011;48643;51.670;5.808;2022-11-15T04:46:27;6.38;;;4.22;;
62584;SDS011;48643;51.670;5.808;2022-11-15T04:49:12;5.57;;;3.90;;
62584;SDS011;48643;51.670;5.808;2022-11-15T04:51:58;6.35;;;4.35;;
62584;SDS011;48643;51.670;5.808;2022-11-15T04:54:43;4.90;;;4.05;;
62584;SDS011;48643;51.670;5.808;2022-11-15T04:57:29;5.35;;;4.18;;
62584;SDS011;48643;51.670;5.808;2022-11-15T05:00:15;5.28;;;4.13;;
62584;SDS011;48643;51.670;5.808;2022-11-15T05:03:01;5.18;;;4.15;;
62584;SDS011;48643;51.670;5.808;2022-11-15T05:06:05;5.97;;;4.20;;
62584;SDS011;48643;51.670;5.808;2022-11-15T05:08:51;5.97;;;4.35;;
62584;SDS011;48643;51.670;5.808;2022-11-15T05:11:36;7.45;;;4.50;;
62584;SDS011;48643;51.670;5.808;2022-11-15T05:14:22;5.00;;;4.07;;
62584;SDS011;48643;51.670;5.808;2022-11-15T05:17:07;5.70;;;4.20;;
62584;SDS011;48643;51.670;5.808;2022-11-15T05:19:52;5.57;;;4.20;;
62584;SDS011;48643;51.670;5.808;2022-11-15T05:22:38;5.28;;;4.03;;
62584;SDS011;48643;51.670;5.808;2022-11-15T05:25:24;5.60;;;4.13;;
62584;SDS011;48643;51.670;5.808;2022-11-15T05:28:09;6.75;;;4.50;;
62584;SDS011;48643;51.670;5.808;2022-11-15T05:31:01;5.13;;;4.20;;
62584;SDS011;48643;51.670;5.808;2022-11-15T05:33:48;6.55;;;4.40;;
62584;SDS011;48643;51.670;5.808;2022-11-15T05:36:36;5.53;;;4.15;;
62584;SDS011;48643;51.670;5.808;2022-11-15T05:39:23;5.60;;;4.10;;
62584;SDS011;48643;51.670;5.808;2022-11-15T05:42:11;5.55;;;4.00;;
62584;SDS011;48643;51.670;5.808;2022-11-15T05:44:58;4.80;;;4.07;;
62584;SDS011;48643;51.670;5.808;2022-11-15T05:47:45;5.40;;;4.20;;
62584;SDS011;48643;51.670;5.808;2022-11-15T05:50:31;4.93;;;3.97;;
62584;SDS011;48643;51.670;5.808;2022-11-15T05:53:17;6.15;;;4.20;;
62584;SDS011;48643;51.670;5.808;2022-11-15T05:56:04;6.35;;;4.05;;
62584;SDS011;48643;51.670;5.808;2022-11-15T05:58:52;5.30;;;4.07;;
62584;SDS011;48643;51.670;5.808;2022-11-15T06:01:44;5.90;;;3.88;;
62584;SDS011;48643;51.670;5.808;2022-11-15T06:04:29;5.03;;;3.72;;
62584;SDS011;48643;51.670;5.808;2022-11-15T06:07:15;6.65;;;4.50;;
62584;SDS011;48643;51.670;5.808;2022-11-15T06:10:00;5.10;;;4.05;;
62584;SDS011;48643;51.670;5.808;2022-11-15T06:12:46;5.43;;;4.13;;
62584;SDS011;48643;51.670;5.808;2022-11-15T06:15:32;5.20;;;3.83;;
62584;SDS011;48643;51.670;5.808;2022-11-15T06:18:18;5.20;;;3.80;;
62584;SDS011;48643;51.670;5.808;2022-11-15T06:21:04;6.07;;;3.90;;
62584;SDS011;48643;51.670;5.808;2022-11-15T06:23:50;5.30;;;3.90;;
62584;SDS011;48643;51.670;5.808;2022-11-15T06:26:35;5.90;;;3.95;;
62584;SDS011;48643;51.670;5.808;2022-11-15T06:29:21;5.07;;;4.00;;
62584;SDS011;48643;51.670;5.808;2022-11-15T06:32:06;4.78;;;3.88;;
62584;SDS011;48643;51.670;5.808;2022-11-15T06:34:51;5.53;;;4.32;;
62584;SDS011;48643;51.670;5.808;2022-11-15T06:37:37;4.97;;;3.88;;
62584;SDS011;48643;51.670;5.808;2022-11-15T06:40:22;4.32;;;3.63;;
62584;SDS011;48643;51.670;5.808;2022-11-15T06:43:08;4.68;;;3.88;;
62584;SDS011;48643;51.670;5.808;2022-11-15T06:45:53;5.95;;;4.15;;
62584;SDS011;48643;51.670;5.808;2022-11-15T06:48:39;4.93;;;3.90;;
62584;SDS011;48643;51.670;5.808;2022-11-15T06:51:24;5.10;;;3.90;;
62584;SDS011;48643;51.670;5.808;2022-11-15T06:54:10;5.07;;;3.80;;
62584;SDS011;48643;51.670;5.808;2022-11-15T06:56:55;5.45;;;3.70;;
62584;SDS011;48643;51.670;5.808;2022-11-15T06:59:40;5.72;;;4.07;;
62584;SDS011;48643;51.670;5.808;2022-11-15T07:02:26;6.00;;;4.22;;
62584;SDS011;48643;51.670;5.808;2022-11-15T07:05:11;6.32;;;3.83;;
62584;SDS011;48643;51.670;5.808;2022-11-15T07:07:58;5.88;;;4.30;;
62584;SDS011;48643;51.670;5.808;2022-11-15T07:10:43;5.97;;;3.60;;
62584;SDS011;48643;51.670;5.808;2022-11-15T07:13:29;6.53;;;4.05;;
62584;SDS011;48643;51.670;5.808;2022-11-15T07:16:19;5.82;;;4.03;;
62584;SDS011;48643;51.670;5.808;2022-11-15T07:19:05;5.10;;;3.75;;
62584;SDS011;48643;51.670;5.808;2022-11-15T07:21:50;5.63;;;3.90;;
62584;SDS011;48643;51.670;5.808;2022-11-15T07:24:36;5.30;;;4.03;;
62584;SDS011;48643;51.670;5.808;2022-11-15T07:27:21;4.78;;;3.83;;
62584;SDS011;48643;51.670;5.808;2022-11-15T07:30:07;5.72;;;3.78;;
62584;SDS011;48643;51.670;5.808;2022-11-15T07:32:57;5.50;;;4.13;;
62584;SDS011;48643;51.670;5.808;2022-11-15T07:35:43;17.27;;;4.40;;
62584;SDS011;48643;51.670;5.808;2022-11-15T07:38:31;7.00;;;4.65;;
62584;SDS011;48643;51.670;5.808;2022-11-15T07:41:23;8.43;;;5.20;;
62584;SDS011;48643;51.670;5.808;2022-11-15T07:44:08;9.35;;;5.30;;
62584;SDS011;48643;51.670;5.808;2022-11-15T07:46:54;10.38;;;5.25;;
62584;SDS011;48643;51.670;5.808;2022-11-15T07:49:39;9.73;;;5.60;;
62584;SDS011;48643;51.670;5.808;2022-11-15T07:52:25;9.38;;;5.47;;
62584;SDS011;48643;51.670;5.808;2022-11-15T07:55:10;18.75;;;5.32;;
62584;SDS011;48643;51.670;5.808;2022-11-15T07:58:09;11.50;;;5.25;;
62584;SDS011;48643;51.670;5.808;2022-11-15T08:03:40;10.73;;;4.70;;
62584;SDS011;48643;51.670;5.808;2022-11-15T08:06:26;16.60;;;5.20;;
62584;SDS011;48643;51.670;5.808;2022-11-15T08:09:12;8.25;;;5.07;;
62584;SDS011;48643;51.670;5.808;2022-11-15T08:11:57;11.18;;;5.00;;
62584;SDS011;48643;51.670;5.808;2022-11-15T08:14:43;7.22;;;4.60;;
62584;SDS011;48643;51.670;5.808;2022-11-15T08:17:28;8.98;;;4.60;;
62584;SDS011;48643;51.670;5.808;2022-11-15T08:20:17;9.95;;;4.68;;
62584;SDS011;48643;51.670;5.808;2022-11-15T08:23:05;9.68;;;4.50;;
62584;SDS011;48643;51.670;5.808;2022-11-15T08:25:50;9.52;;;4.38;;
62584;SDS011;48643;51.670;5.808;2022-11-15T08:28:36;9.27;;;4.63;;
62584;SDS011;48643;51.670;5.808;2022-11-15T08:31:21;7.50;;;4.45;;
62584;SDS011;48643;51.670;5.808;2022-11-15T08:34:07;10.55;;;4.55;;
62584;SDS011;48643;51.670;5.808;2022-11-15T08:36:52;7.63;;;4.38;;
62584;SDS011;48643;51.670;5.808;2022-11-15T08:39:38;8.10;;;4.53;;
62584;SDS011;48643;51.670;5.808;2022-11-15T08:42:23;6.60;;;3.90;;
62584;SDS011;48643;51.670;5.808;2022-11-15T08:45:09;9.38;;;4.40;;
62584;SDS011;48643;51.670;5.808;2022-11-15T08:47:54;12.07;;;3.95;;
62584;SDS011;48643;51.670;5.808;2022-11-15T08:50:40;6.53;;;4.00;;
62584;SDS011;48643;51.670;5.808;2022-11-15T08:53:25;7.00;;;4.60;;
62584;SDS011;48643;51.670;5.808;2022-11-15T08:56:11;8.52;;;4.20;;
62584;SDS011;48643;51.670;5.808;2022-11-15T08:58:58;8.85;;;4.47;;
62584;SDS011;48643;51.670;5.808;2022-11-15T09:01:43;12.48;;;3.92;;
62584;SDS011;48643;51.670;5.808;2022-11-15T09:04:29;7.80;;;4.25;;
62584;SDS011;48643;51.670;5.808;2022-11-15T09:07:15;10.05;;;4.65;;
62584;SDS011;48643;51.670;5.808;2022-11-15T09:10:00;8.38;;;3.70;;
62584;SDS011;48643;51.670;5.808;2022-11-15T09:12:46;8.35;;;3.67;;
62584;SDS011;48643;51.670;5.808;2022-11-15T09:15:33;14.23;;;3.80;;
62584;SDS011;48643;51.670;5.808;2022-11-15T09:18:18;5.97;;;3.40;;
62584;SDS011;48643;51.670;5.808;2022-11-15T09:21:07;27.35;;;5.68;;
62584;SDS011;48643;51.670;5.808;2022-11-15T09:23:53;15.18;;;4.10;;
62584;SDS011;48643;51.670;5.808;2022-11-15T09:26:38;12.55;;;4.20;;
62584;SDS011;48643;51.670;5.808;2022-11-15T09:29:24;23.35;;;4.47;;
62584;SDS011;48643;51.670;5.808;2022-11-15T09:32:10;10.93;;;3.70;;
62584;SDS011;48643;51.670;5.808;2022-11-15T09:34:55;14.23;;;3.83;;
62584;SDS011;48643;51.670;5.808;2022-11-15T09:37:41;12.43;;;3.63;;
62584;SDS011;48643;51.670;5.808;2022-11-15T09:40:27;10.57;;;3.90;;
62584;SDS011;48643;51.670;5.808;2022-11-15T09:43:25;8.80;;;3.63;;
62584;SDS011;48643;51.670;5.808;2022-11-15T09:49:09;6.50;;;3.15;;
62584;SDS011;48643;51.670;5.808;2022-11-15T09:51:53;8.75;;;3.00;;
62584;SDS011;48643;51.670;5.808;2022-11-15T09:54:23;6.95;;;2.88;;
62584;SDS011;48643;51.670;5.808;2022-11-15T09:57:12;6.32;;;2.90;;
62584;SDS011;48643;51.670;5.808;2022-11-15T10:03:12;6.63;;;2.80;;
62584;SDS011;48643;51.670;5.808;2022-11-15T10:05:46;6.13;;;2.67;;
62584;SDS011;48643;51.670;5.808;2022-11-15T10:11:04;5.32;;;2.60;;
62584;SDS011;48643;51.670;5.808;2022-11-15T10:13:55;4.60;;;2.80;;
62584;SDS011;48643;51.670;5.808;2022-11-15T10:19:31;7.03;;;2.72;;
62584;SDS011;48643;51.670;5.808;2022-11-15T10:22:55;10.75;;;2.78;;
62584;SDS011;48643;51.670;5.808;2022-11-15T10:25:26;13.77;;;3.33;;
62584;SDS011;48643;51.670;5.808;2022-11-15T10:30:52;14.18;;;5.05;;
62584;SDS011;48643;51.670;5.808;2022-11-15T10:33:31;9.68;;;3.80;;
62584;SDS011;48643;51.670;5.808;2022-11-15T10:46:48;6.75;;;3.08;;
62584;SDS011;48643;51.670;5.808;2022-11-15T10:49:22;10.90;;;3.30;;
62584;SDS011;48643;51.670;5.808;2022-11-15T10:51:55;10.25;;;3.50;;
62584;SDS011;48643;51.670;5.808;2022-11-15T10:54:26;8.65;;;2.90;;
62584;SDS011;48643;51.670;5.808;2022-11-15T10:57:22;8.60;;;3.13;;
62584;SDS011;48643;51.670;5.808;2022-11-15T10:59:52;7.63;;;3.03;;
62584;SDS011;48643;51.670;5.808;2022-11-15T11:04:58;9.18;;;3.00;;
62584;SDS011;48643;51.670;5.808;2022-11-15T11:07:28;8.02;;;2.50;;
62584;SDS011;48643;51.670;5.808;2022-11-15T11:09:57;5.68;;;2.65;;
62584;SDS011;48643;51.670;5.808;2022-11-15T11:12:30;7.82;;;2.40;;
62584;SDS011;48643;51.670;5.808;2022-11-15T11:14:59;7.60;;;2.92;;
62584;SDS011;48643;51.670;5.808;2022-11-15T11:20:07;5.78;;;2.30;;
62584;SDS011;48643;51.670;5.808;2022-11-15T11:28:01;6.30;;;2.38;;
62584;SDS011;48643;51.670;5.808;2022-11-15T11:33:10;6.18;;;2.20;;
62584;SDS011;48643;51.670;5.808;2022-11-15T11:36:03;7.18;;;2.13;;
62584;SDS011;48643;51.670;5.808;2022-11-15T11:41:39;6.53;;;2.30;;
62584;SDS011;48643;51.670;5.808;2022-11-15T11:49:21;3.90;;;2.20;;
62584;SDS011;48643;51.670;5.808;2022-11-15T11:52:08;4.90;;;2.15;;
62584;SDS011;48643;51.670;5.808;2022-11-15T11:57:45;5.85;;;1.90;;
62584;SDS011;48643;51.670;5.808;2022-11-15T12:00:33;5.57;;;2.13;;
62584;SDS011;48643;51.670;5.808;2022-11-15T12:03:08;5.00;;;2.10;;
62584;SDS011;48643;51.670;5.808;2022-11-15T12:05:43;5.45;;;2.03;;
62584;SDS011;48643;51.670;5.808;2022-11-15T12:08:56;5.80;;;2.15;;
62584;SDS011;48643;51.670;5.808;2022-11-15T12:11:10;2.90;;;1.90;;
62584;SDS011;48643;51.670;5.808;2022-11-15T12:13:37;2.72;;;1.70;;
62584;SDS011;48643;51.670;5.808;2022-11-15T12:16:18;2.85;;;1.83;;
62584;SDS011;48643;51.670;5.808;2022-11-15T12:18:49;5.18;;;2.10;;
62584;SDS011;48643;51.670;5.808;2022-11-15T12:24:17;5.30;;;1.92;;
62584;SDS011;48643;51.670;5.808;2022-11-15T12:27:35;5.18;;;2.00;;
62584;SDS011;48643;51.670;5.808;2022-11-15T12:29:58;3.78;;;1.80;;
62584;SDS011;48643;51.670;5.808;2022-11-15T12:36:00;5.47;;;1.80;;
62584;SDS011;48643;51.670;5.808;2022-11-15T12:38:09;5.32;;;1.70;;
62584;SDS011;48643;51.670;5.808;2022-11-15T12:40:37;5.80;;;1.90;;
62584;SDS011;48643;51.670;5.808;2022-11-15T12:45:43;6.72;;;1.95;;
62584;SDS011;48643;51.670;5.808;2022-11-15T13:06:48;2.95;;;1.70;;
62584;SDS011;48643;51.670;5.808;2022-11-15T13:12:06;3.15;;;1.70;;
62584;SDS011;48643;51.670;5.808;2022-11-15T13:14:42;2.97;;;1.63;;
62584;SDS011;48643;51.670;5.808;2022-11-15T13:19:47;5.55;;;1.70;;
62584;SDS011;48643;51.670;5.808;2022-11-15T13:22:23;2.75;;;1.67;;
62584;SDS011;48643;51.670;5.808;2022-11-15T13:25:24;4.18;;;1.70;;
62584;SDS011;48643;51.670;5.808;2022-11-15T13:27:54;4.63;;;1.73;;
62584;SDS011;48643;51.670;5.808;2022-11-15T13:30:28;2.28;;;1.70;;
62584;SDS011;48643;51.670;5.808;2022-11-15T13:32:58;2.72;;;1.70;;
62584;SDS011;48643;51.670;5.808;2022-11-15T13:35:31;2.97;;;1.70;;
62584;SDS011;48643;51.670;5.808;2022-11-15T13:38:03;3.08;;;1.73;;
62584;SDS011;48643;51.670;5.808;2022-11-15T13:40:39;3.53;;;1.70;;
62584;SDS011;48643;51.670;5.808;2022-11-15T13:48:39;2.58;;;1.65;;
62584;SDS011;48643;51.670;5.808;2022-11-15T13:51:30;2.83;;;1.60;;
62584;SDS011;48643;51.670;5.808;2022-11-15T13:54:07;5.43;;;1.95;;
62584;SDS011;48643;51.670;5.808;2022-11-15T13:56:45;4.38;;;1.75;;
62584;SDS011;48643;51.670;5.808;2022-11-15T13:59:17;4.05;;;1.60;;
62584;SDS011;48643;51.670;5.808;2022-11-15T14:01:45;3.38;;;1.70;;
62584;SDS011;48643;51.670;5.808;2022-11-15T14:04:13;2.60;;;1.48;;
62584;SDS011;48643;51.670;5.808;2022-11-15T14:06:45;2.67;;;1.40;;
62584;SDS011;48643;51.670;5.808;2022-11-15T14:12:35;2.22;;;1.50;;
62584;SDS011;48643;51.670;5.808;2022-11-15T14:15:18;2.28;;;1.45;;
62584;SDS011;48643;51.670;5.808;2022-11-15T14:17:57;2.72;;;1.80;;
62584;SDS011;48643;51.670;5.808;2022-11-15T14:20:37;2.22;;;1.80;;
62584;SDS011;48643;51.670;5.808;2022-11-15T14:23:17;3.83;;;1.63;;
62584;SDS011;48643;51.670;5.808;2022-11-15T14:25:52;1.70;;;1.40;;
62584;SDS011;48643;51.670;5.808;2022-11-15T14:30:54;4.13;;;1.90;;
62584;SDS011;48643;51.670;5.808;2022-11-15T14:33:24;1.98;;;1.60;;
62584;SDS011;48643;51.670;5.808;2022-11-15T14:35:51;3.22;;;1.50;;
62584;SDS011;48643;51.670;5.808;2022-11-15T14:38:18;8.48;;;1.50;;
62584;SDS011;48643;51.670;5.808;2022-11-15T14:40:45;3.45;;;1.58;;
62584;SDS011;48643;51.670;5.808;2022-11-15T14:43:14;3.13;;;1.85;;
62584;SDS011;48643;51.670;5.808;2022-11-15T14:45:41;2.95;;;1.55;;
62584;SDS011;48643;51.670;5.808;2022-11-15T14:48:08;4.80;;;1.88;;
62584;SDS011;48643;51.670;5.808;2022-11-15T14:50:35;3.72;;;1.70;;
62584;SDS011;48643;51.670;5.808;2022-11-15T14:53:02;5.20;;;1.75;;
62584;SDS011;48643;51.670;5.808;2022-11-15T14:55:31;3.47;;;1.63;;
62584;SDS011;48643;51.670;5.808;2022-11-15T14:58:02;4.55;;;2.00;;
62584;SDS011;48643;51.670;5.808;2022-11-15T15:00:30;3.38;;;1.80;;
62584;SDS011;48643;51.670;5.808;2022-11-15T15:03:01;4.05;;;1.73;;
62584;SDS011;48643;51.670;5.808;2022-11-15T15:08:02;3.67;;;1.67;;
62584;SDS011;48643;51.670;5.808;2022-11-15T15:10:31;4.05;;;1.88;;
62584;SDS011;48643;51.670;5.808;2022-11-15T15:13:20;2.30;;;1.50;;
62584;SDS011;48643;51.670;5.808;2022-11-15T15:15:49;3.70;;;1.90;;
62584;SDS011;48643;51.670;5.808;2022-11-15T15:18:18;4.05;;;1.80;;
62584;SDS011;48643;51.670;5.808;2022-11-15T15:20:47;2.92;;;1.75;;
62584;SDS011;48643;51.670;5.808;2022-11-15T15:23:20;3.08;;;1.58;;
62584;SDS011;48643;51.670;5.808;2022-11-15T15:25:47;4.38;;;1.67;;
62584;SDS011;48643;51.670;5.808;2022-11-15T15:28:15;3.20;;;1.90;;
62584;SDS011;48643;51.670;5.808;2022-11-15T15:30:42;3.17;;;1.58;;
62584;SDS011;48643;51.670;5.808;2022-11-15T15:33:09;3.83;;;1.73;;
62584;SDS011;48643;51.670;5.808;2022-11-15T15:35:37;5.45;;;1.90;;
62584;SDS011;48643;51.670;5.808;2022-11-15T15:38:04;5.32;;;1.65;;
62584;SDS011;48643;51.670;5.808;2022-11-15T15:40:32;4.60;;;1.60;;
62584;SDS011;48643;51.670;5.808;2022-11-15T15:43:02;4.60;;;1.70;;
62584;SDS011;48643;51.670;5.808;2022-11-15T15:45:29;9.95;;;1.70;;
62584;SDS011;48643;51.670;5.808;2022-11-15T15:47:57;4.00;;;1.70;;
62584;SDS011;48643;51.670;5.808;2022-11-15T15:50:28;5.68;;;1.80;;
62584;SDS011;48643;51.670;5.808;2022-11-15T15:53:00;3.80;;;1.48;;
62584;SDS011;48643;51.670;5.808;2022-11-15T15:55:28;3.70;;;1.70;;
62584;SDS011;48643;51.670;5.808;2022-11-15T15:57:55;7.35;;;2.13;;
62584;SDS011;48643;51.670;5.808;2022-11-15T16:00:23;10.02;;;6.65;;
62584;SDS011;48643;51.670;5.808;2022-11-15T16:02:51;13.55;;;10.63;;
62584;SDS011;48643;51.670;5.808;2022-11-15T16:05:19;11.50;;;7.13;;
62584;SDS011;48643;51.670;5.808;2022-11-15T16:07:46;8.77;;;5.25;;
62584;SDS011;48643;51.670;5.808;2022-11-15T16:12:48;7.18;;;4.53;;
62584;SDS011;48643;51.670;5.808;2022-11-15T16:15:15;7.68;;;5.20;;
62584;SDS011;48643;51.670;5.808;2022-11-15T16:20:36;7.25;;;5.72;;
62584;SDS011;48643;51.670;5.808;2022-11-15T16:23:05;8.07;;;5.70;;
62584;SDS011;48643;51.670;5.808;2022-11-15T16:28:20;7.82;;;5.22;;
62584;SDS011;48643;51.670;5.808;2022-11-15T16:31:10;7.82;;;5.68;;
62584;SDS011;48643;51.670;5.808;2022-11-15T16:33:38;6.13;;;4.65;;
62584;SDS011;48643;51.670;5.808;2022-11-15T16:36:06;6.78;;;4.68;;
62584;SDS011;48643;51.670;5.808;2022-11-15T16:38:40;8.07;;;4.43;;
62584;SDS011;48643;51.670;5.808;2022-11-15T16:41:07;8.27;;;4.30;;
62584;SDS011;48643;51.670;5.808;2022-11-15T16:43:34;19.25;;;9.55;;
62584;SDS011;48643;51.670;5.808;2022-11-15T16:46:11;1372.47;;;574.25;;
62584;SDS011;48643;51.670;5.808;2022-11-15T16:48:42;1393.47;;;576.35;;
62584;SDS011;48643;51.670;5.808;2022-11-15T16:51:09;1035.97;;;437.60;;
62584;SDS011;48643;51.670;5.808;2022-11-15T16:53:36;1034.93;;;435.60;;
62584;SDS011;48643;51.670;5.808;2022-11-15T16:56:03;1107.97;;;472.95;;
62584;SDS011;48643;51.670;5.808;2022-11-15T16:58:30;1020.00;;;426.17;;
62584;SDS011;48643;51.670;5.808;2022-11-15T17:00:59;907.58;;;373.52;;
62584;SDS011;48643;51.670;5.808;2022-11-15T17:03:26;878.60;;;356.92;;
62584;SDS011;48643;51.670;5.808;2022-11-15T17:05:52;787.25;;;325.23;;
62584;SDS011;48643;51.670;5.808;2022-11-15T17:08:24;720.55;;;296.77;;
62584;SDS011;48643;51.670;5.808;2022-11-15T17:10:51;680.25;;;276.55;;
62584;SDS011;48643;51.670;5.808;2022-11-15T17:13:18;681.40;;;268.88;;
62584;SDS011;48643;51.670;5.808;2022-11-15T17:15:45;610.80;;;245.52;;
62584;SDS011;48643;51.670;5.808;2022-11-15T17:18:12;587.75;;;242.18;;
62584;SDS011;48643;51.670;5.808;2022-11-15T17:20:40;583.80;;;231.38;;
62584;SDS011;48643;51.670;5.808;2022-11-15T17:23:11;566.08;;;222.95;;
62584;SDS011;48643;51.670;5.808;2022-11-15T17:25:40;556.03;;;215.70;;
62584;SDS011;48643;51.670;5.808;2022-11-15T17:28:07;537.85;;;204.77;;
62584;SDS011;48643;51.670;5.808;2022-11-15T17:30:34;518.83;;;195.95;;
62584;SDS011;48643;51.670;5.808;2022-11-15T17:33:01;511.55;;;193.52;;
62584;SDS011;48643;51.670;5.808;2022-11-15T17:35:27;491.85;;;177.40;;
62584;SDS011;48643;51.670;5.808;2022-11-15T17:37:54;483.00;;;174.25;;
62584;SDS011;48643;51.670;5.808;2022-11-15T17:40:21;448.25;;;157.88;;
62584;SDS011;48643;51.670;5.808;2022-11-15T17:42:48;426.20;;;149.82;;
62584;SDS011;48643;51.670;5.808;2022-11-15T17:45:15;427.25;;;150.50;;
62584;SDS011;48643;51.670;5.808;2022-11-15T17:47:42;371.50;;;130.27;;
62584;SDS011;48643;51.670;5.808;2022-11-15T17:50:09;375.08;;;131.65;;
62584;SDS011;48643;51.670;5.808;2022-11-15T17:52:36;374.95;;;127.13;;
62584;SDS011;48643;51.670;5.808;2022-11-15T17:55:03;358.83;;;121.35;;
62584;SDS011;48643;51.670;5.808;2022-11-15T17:57:30;355.63;;;121.00;;
62584;SDS011;48643;51.670;5.808;2022-11-15T17:59:57;346.63;;;115.75;;
62584;SDS011;48643;51.670;5.808;2022-11-15T18:02:24;346.70;;;119.25;;
62584;SDS011;48643;51.670;5.808;2022-11-15T18:04:51;340.73;;;118.45;;
62584;SDS011;48643;51.670;5.808;2022-11-15T18:07:18;333.52;;;113.45;;
62584;SDS011;48643;51.670;5.808;2022-11-15T18:09:45;331.33;;;111.07;;
62584;SDS011;48643;51.670;5.808;2022-11-15T18:12:12;317.65;;;108.18;;
62584;SDS011;48643;51.670;5.808;2022-11-15T18:14:39;319.58;;;105.38;;